Time;durP1;ratioP1;P1;durP2;ratioP2;P2;SDS_P1;SDS_P2;PMS_P1;PMS_P2;Temp;Humidity;BMP_temperature;BMP_pressure;BME280_temperature;BME280_humidity;BME280_pressure;Samples;Min_cycle;Max_cycle;Signal;HPM_P1;HPM_P2
2022/04/25 00:01:56;;;;;;;14.60;7.13;;;10.50;99.90;;;;;;4976734;28;20038;-90
2022/04/25 00:04:21;;;;;;;13.13;7.88;;;10.50;99.90;;;;;;4993578;28;20046;-90
2022/04/25 00:06:47;;;;;;;14.02;8.45;;;10.50;99.90;;;;;;4993267;28;20099;-89
2022/04/25 00:09:12;;;;;;;12.45;7.55;;;10.50;99.90;;;;;;4993056;28;20038;-90
2022/04/25 00:11:38;;;;;;;13.95;7.53;;;10.50;99.90;;;;;;4976333;28;20046;-89
2022/04/25 00:14:06;;;;;;;13.77;7.80;;;10.40;99.90;;;;;;4976966;28;20038;-90
2022/04/25 00:16:32;;;;;;;13.57;6.95;;;10.50;99.90;;;;;;4977056;28;20034;-89
2022/04/25 00:18:59;;;;;;;14.20;8.18;;;10.40;99.90;;;;;;4993149;28;20118;-89
2022/04/25 00:21:25;;;;;;;13.20;7.03;;;10.50;99.90;;;;;;4992572;28;20496;-90
2022/04/25 00:23:51;;;;;;;13.23;7.60;;;10.50;99.90;;;;;;4992807;28;20034;-89
2022/04/25 00:26:17;;;;;;;13.05;7.78;;;10.40;99.90;;;;;;4993218;28;20050;-90
2022/04/25 00:28:43;;;;;;;14.82;8.02;;;10.50;99.90;;;;;;4993208;28;20531;-90
2022/04/25 00:31:08;;;;;;;13.88;7.68;;;10.40;99.90;;;;;;4976568;28;20077;-90
2022/04/25 00:33:34;;;;;;;14.23;7.38;;;10.40;99.90;;;;;;4993041;28;20061;-89
2022/04/25 00:36:00;;;;;;;13.45;7.80;;;10.40;99.90;;;;;;4992958;28;20038;-89
2022/04/25 00:38:26;;;;;;;14.00;7.90;;;10.50;99.90;;;;;;4992662;28;20050;-90
2022/04/25 00:40:51;;;;;;;13.98;7.78;;;10.40;99.90;;;;;;4991355;28;20102;-90
2022/04/25 00:43:17;;;;;;;14.50;7.85;;;10.40;99.90;;;;;;4992573;28;20125;-90
2022/04/25 00:45:43;;;;;;;13.90;8.48;;;10.40;99.90;;;;;;4992914;28;20423;-90
2022/04/25 00:48:08;;;;;;;13.88;7.78;;;10.40;99.90;;;;;;4976661;28;20039;-90
2022/04/25 00:50:34;;;;;;;13.45;7.57;;;10.40;99.90;;;;;;4992483;28;20038;-90
2022/04/25 00:53:00;;;;;;;15.43;9.07;;;10.40;99.90;;;;;;4991451;28;20034;-89
2022/04/25 00:55:25;;;;;;;14.07;8.77;;;10.40;99.90;;;;;;4992404;28;20050;-90
2022/04/25 00:57:52;;;;;;;13.23;8.38;;;10.40;99.90;;;;;;4992279;28;20045;-89
2022/04/25 01:00:18;;;;;;;15.70;8.88;;;10.30;99.90;;;;;;4992321;28;20515;-90
2022/04/25 01:02:44;;;;;;;19.15;11.00;;;10.30;99.90;;;;;;4976498;28;20039;-89
2022/04/25 01:05:10;;;;;;;16.35;8.80;;;10.30;99.90;;;;;;4976536;28;20561;-90
2022/04/25 01:07:37;;;;;;;16.60;9.70;;;10.30;99.90;;;;;;4992428;28;20050;-90
2022/04/25 01:10:08;;;;;;;16.98;9.27;;;10.30;99.90;;;;;;4975870;28;20072;-89
2022/04/25 01:12:34;;;;;;;17.05;9.68;;;10.30;99.90;;;;;;4975671;28;20050;-90
2022/04/25 01:15:02;;;;;;;16.90;10.00;;;10.30;99.90;;;;;;4992307;28;20077;-90
2022/04/25 01:17:28;;;;;;;17.30;10.68;;;10.20;99.90;;;;;;4991834;28;20045;-89
2022/04/25 01:19:54;;;;;;;15.35;8.95;;;10.30;99.90;;;;;;4991992;28;20042;-90
2022/04/25 01:22:24;;;;;;;18.52;10.25;;;10.20;99.90;;;;;;4991921;28;20046;-90
2022/04/25 01:27:34;;;;;;;15.70;9.40;;;10.20;99.90;;;;;;4992201;28;20054;-90
2022/04/25 01:30:00;;;;;;;17.67;10.43;;;10.20;99.90;;;;;;4975572;28;20034;-90
2022/04/25 01:32:26;;;;;;;15.93;9.82;;;10.20;99.90;;;;;;4991953;28;20038;-89
2022/04/25 01:34:52;;;;;;;15.32;10.43;;;10.10;99.90;;;;;;4992207;28;20479;-89
2022/04/25 01:37:19;;;;;;;17.38;10.80;;;10.10;99.90;;;;;;4992256;28;20149;-89
2022/04/25 01:39:50;;;;;;;16.65;10.45;;;10.10;99.90;;;;;;4975582;28;20408;-90
2022/04/25 01:42:17;;;;;;;16.73;11.15;;;10.10;99.90;;;;;;4991822;28;20045;-90
2022/04/25 01:44:43;;;;;;;17.92;10.95;;;10.00;99.90;;;;;;4991684;28;20039;-90
2022/04/25 01:47:09;;;;;;;16.85;9.73;;;10.00;99.90;;;;;;4991709;28;20117;-89
2022/04/25 01:49:36;;;;;;;17.38;10.13;;;10.10;99.90;;;;;;4975315;28;20035;-90
2022/04/25 01:52:10;;;;;;;19.08;9.88;;;10.00;99.90;;;;;;4975092;28;20038;-90
2022/04/25 01:54:36;;;;;;;15.60;9.55;;;10.00;99.90;;;;;;4991942;28;20121;-90
2022/04/25 01:57:02;;;;;;;18.77;10.27;;;9.90;99.90;;;;;;4975534;28;20130;-89
2022/04/25 01:59:30;;;;;;;19.70;10.30;;;9.90;99.90;;;;;;4992624;28;20042;-90
2022/04/25 02:01:56;;;;;;;16.52;9.93;;;9.90;99.90;;;;;;4990877;28;20117;-90
2022/04/25 02:04:22;;;;;;;17.08;9.40;;;9.90;99.90;;;;;;4991822;28;20134;-90
2022/04/25 02:06:48;;;;;;;17.85;9.98;;;9.90;99.90;;;;;;4974991;28;20042;-90
2022/04/25 02:09:13;;;;;;;16.55;9.40;;;9.90;99.90;;;;;;4991381;28;20042;-89
2022/04/25 02:11:39;;;;;;;15.35;10.05;;;9.80;99.90;;;;;;4990455;28;20045;-89
2022/04/25 02:14:05;;;;;;;17.98;10.32;;;9.90;99.90;;;;;;4974873;28;20084;-90
2022/04/25 02:16:31;;;;;;;18.25;10.65;;;9.80;99.90;;;;;;4975114;28;20132;-89
2022/04/25 02:18:56;;;;;;;23.02;12.20;;;9.80;99.90;;;;;;4974803;28;20057;-90
2022/04/25 02:21:22;;;;;;;19.35;10.43;;;9.70;99.90;;;;;;4990820;28;20045;-89
2022/04/25 02:23:48;;;;;;;18.23;10.52;;;9.80;99.90;;;;;;4991244;28;20047;-89
2022/04/25 02:26:14;;;;;;;16.85;10.40;;;9.70;99.90;;;;;;4990962;28;20049;-89
2022/04/25 02:28:40;;;;;;;16.85;9.75;;;9.70;99.90;;;;;;4990798;28;20049;-89
2022/04/25 02:31:07;;;;;;;19.98;11.32;;;9.60;99.90;;;;;;4990688;28;20146;-90
2022/04/25 02:33:33;;;;;;;19.13;10.82;;;9.60;99.90;;;;;;4974773;28;20034;-89
2022/04/25 02:36:00;;;;;;;17.88;11.20;;;9.60;99.90;;;;;;4991021;28;20121;-90
2022/04/25 02:38:26;;;;;;;19.40;10.63;;;9.60;99.90;;;;;;4990830;28;20478;-89
2022/04/25 02:41:04;;;;;;;16.95;10.43;;;9.50;99.90;;;;;;4974461;28;20141;-90
2022/04/25 02:43:39;;;;;;;17.83;10.73;;;9.50;99.90;;;;;;4990634;28;20053;-90
2022/04/25 02:46:06;;;;;;;16.00;9.93;;;9.50;99.90;;;;;;4990800;28;20124;-90
2022/04/25 02:48:33;;;;;;;17.17;10.75;;;9.40;99.90;;;;;;4974640;28;20049;-89
2022/04/25 02:50:59;;;;;;;16.25;9.98;;;9.40;99.90;;;;;;4990424;28;20125;-90
2022/04/25 02:53:25;;;;;;;17.48;10.77;;;9.40;99.90;;;;;;4991030;28;20125;-90
2022/04/25 02:55:53;;;;;;;17.67;10.35;;;9.40;99.90;;;;;;4990454;28;20176;-89
2022/04/25 02:58:19;;;;;;;18.65;11.13;;;9.40;99.90;;;;;;4990579;28;20107;-89
2022/04/25 03:00:46;;;;;;;17.55;9.80;;;9.40;99.90;;;;;;4990325;28;20117;-90
2022/04/25 03:03:13;;;;;;;18.88;10.05;;;9.30;99.90;;;;;;4990483;28;20088;-90
2022/04/25 03:05:44;;;;;;;19.00;9.65;;;9.30;99.90;;;;;;4990525;28;20057;-89
2022/04/25 03:08:15;;;;;;;22.23;10.45;;;9.30;99.90;;;;;;4990349;28;20089;-89
2022/04/25 03:10:42;;;;;;;18.65;10.90;;;9.30;99.90;;;;;;4989974;28;20056;-89
2022/04/25 03:13:13;;;;;;;17.83;9.70;;;9.20;99.90;;;;;;4974215;28;20085;-89
2022/04/25 03:15:39;;;;;;;17.45;10.13;;;9.30;99.90;;;;;;4990600;28;20034;-89
2022/04/25 03:18:07;;;;;;;16.88;9.70;;;9.20;99.90;;;;;;4990816;28;20116;-90
2022/04/25 03:20:33;;;;;;;16.20;9.27;;;9.20;99.90;;;;;;4990102;28;20050;-89
2022/04/25 03:22:59;;;;;;;18.38;10.25;;;9.20;99.90;;;;;;4973974;28;20053;-90
2022/04/25 03:25:24;;;;;;;18.92;10.35;;;9.20;99.90;;;;;;4974488;28;20038;-89
2022/04/25 03:27:50;;;;;;;19.02;10.40;;;9.20;99.90;;;;;;4990393;28;20038;-89
2022/04/25 03:30:17;;;;;;;17.88;9.23;;;9.20;99.90;;;;;;4973848;28;20089;-90
2022/04/25 03:32:47;;;;;;;18.75;10.35;;;9.20;99.90;;;;;;4974352;28;20392;-90
2022/04/25 03:35:17;;;;;;;17.30;9.90;;;9.20;99.90;;;;;;4990391;28;20084;-89
2022/04/25 03:37:44;;;;;;;16.52;9.73;;;9.20;99.90;;;;;;4990365;28;20039;-89
2022/04/25 03:40:10;;;;;;;20.23;10.27;;;9.10;99.90;;;;;;4990336;28;20042;-90
2022/04/25 03:42:40;;;;;;;18.35;10.20;;;9.10;99.90;;;;;;4973856;28;20057;-90
2022/04/25 03:45:09;;;;;;;16.02;10.10;;;9.00;99.90;;;;;;4990351;28;20034;-90
2022/04/25 03:47:38;;;;;;;16.17;9.50;;;9.10;99.90;;;;;;4974137;28;20431;-89
2022/04/25 03:50:08;;;;;;;19.70;9.43;;;9.00;99.90;;;;;;4973556;28;20042;-90
2022/04/25 03:52:45;;;;;;;19.23;9.27;;;9.00;99.90;;;;;;4973972;28;20042;-90
2022/04/25 03:58:00;;;;;;;16.67;9.70;;;9.00;99.90;;;;;;4990204;28;20094;-90
2022/04/25 04:00:25;;;;;;;16.95;9.68;;;9.00;99.90;;;;;;4973744;28;20622;-89
2022/04/25 04:02:51;;;;;;;18.88;10.20;;;9.00;99.90;;;;;;4989901;28;20121;-89
2022/04/25 04:05:18;;;;;;;18.13;10.60;;;9.00;99.90;;;;;;4974103;28;20044;-90
2022/04/25 04:07:44;;;;;;;19.52;10.02;;;9.00;99.90;;;;;;4974011;28;20046;-88
2022/04/25 04:10:10;;;;;;;17.05;10.00;;;8.90;99.90;;;;;;4989626;28;20045;-90
2022/04/25 04:12:36;;;;;;;17.27;9.80;;;8.90;99.90;;;;;;4989938;28;20053;-90
2022/04/25 04:15:07;;;;;;;15.35;9.48;;;8.90;99.90;;;;;;4989837;28;20113;-89
2022/04/25 04:17:33;;;;;;;17.20;9.70;;;8.90;99.90;;;;;;4992579;28;20439;-89
2022/04/25 04:19:59;;;;;;;19.45;9.07;;;8.90;99.90;;;;;;4976835;28;20046;-90
2022/04/25 04:22:25;;;;;;;17.35;10.13;;;9.00;99.90;;;;;;4993386;28;20053;-90
2022/04/25 04:24:51;;;;;;;16.92;9.15;;;9.00;99.90;;;;;;4977153;28;20049;-89
2022/04/25 04:27:17;;;;;;;18.05;9.90;;;8.90;99.90;;;;;;5000226;28;20046;-89
2022/04/25 04:29:44;;;;;;;15.18;8.93;;;8.90;99.90;;;;;;4983985;28;20054;-89
2022/04/25 04:32:09;;;;;;;16.90;9.45;;;8.90;99.90;;;;;;4994532;28;20034;-89
2022/04/25 04:34:36;;;;;;;16.92;9.75;;;8.90;99.90;;;;;;4994628;28;20514;-89
2022/04/25 04:37:03;;;;;;;15.70;8.95;;;8.90;99.90;;;;;;4994586;28;20046;-89
2022/04/25 04:39:31;;;;;;;17.65;9.63;;;9.00;99.90;;;;;;4994466;28;20034;-89
2022/04/25 04:41:56;;;;;;;16.08;9.23;;;9.00;99.90;;;;;;4992863;28;20038;-89
2022/04/25 04:44:22;;;;;;;17.85;8.82;;;9.00;99.90;;;;;;4993098;28;20084;-89
2022/04/25 04:46:47;;;;;;;16.10;9.10;;;9.00;99.90;;;;;;4993086;28;20035;-89
2022/04/25 04:49:14;;;;;;;18.88;9.88;;;9.00;99.90;;;;;;4992813;28;20086;-89
2022/04/25 04:51:40;;;;;;;17.80;9.80;;;9.00;99.90;;;;;;4992829;28;20061;-90
2022/04/25 04:54:05;;;;;;;18.33;10.25;;;9.00;99.90;;;;;;4992889;28;20439;-89
2022/04/25 04:56:32;;;;;;;18.20;9.02;;;9.00;99.90;;;;;;4992652;28;20040;-89
2022/04/25 04:58:58;;;;;;;18.58;9.50;;;9.00;99.90;;;;;;4992629;28;20050;-89
2022/04/25 05:01:24;;;;;;;17.42;9.57;;;9.00;99.90;;;;;;4992297;28;20498;-89
2022/04/25 05:03:50;;;;;;;19.13;10.75;;;9.00;99.90;;;;;;4992841;28;20201;-89
2022/04/25 05:06:16;;;;;;;18.10;8.90;;;9.00;99.90;;;;;;4992644;28;20150;-89
2022/04/25 05:08:42;;;;;;;15.93;9.77;;;9.00;99.90;;;;;;4992204;28;20426;-89
2022/04/25 05:11:09;;;;;;;17.83;9.98;;;9.00;99.90;;;;;;4973839;28;20500;-89
2022/04/25 05:13:38;;;;;;;19.38;9.88;;;9.10;99.90;;;;;;4991556;28;20057;-89
2022/04/25 05:16:05;;;;;;;16.33;9.55;;;9.10;99.90;;;;;;4991932;28;20049;-89
2022/04/25 05:18:33;;;;;;;18.40;9.30;;;9.10;99.90;;;;;;4991413;28;20532;-89
2022/04/25 05:21:00;;;;;;;15.68;9.27;;;9.10;99.90;;;;;;4991497;28;20050;-89
2022/04/25 05:23:25;;;;;;;17.52;10.77;;;9.10;99.90;;;;;;4991611;28;20089;-89
2022/04/25 05:25:51;;;;;;;16.75;9.00;;;9.10;99.90;;;;;;4991503;28;20046;-89
2022/04/25 05:28:16;;;;;;;17.65;8.15;;;9.10;99.90;;;;;;4991451;28;20060;-89
2022/04/25 05:30:43;;;;;;;15.93;9.13;;;9.10;99.90;;;;;;4991358;28;20125;-89
2022/04/25 05:33:09;;;;;;;16.70;9.35;;;9.10;99.90;;;;;;4991838;28;20447;-89
2022/04/25 05:35:35;;;;;;;16.85;8.88;;;9.10;99.90;;;;;;4992196;28;20034;-89
2022/04/25 05:38:02;;;;;;;16.30;10.10;;;9.00;99.90;;;;;;4991623;28;20069;-89
2022/04/25 05:40:28;;;;;;;16.02;9.50;;;9.10;99.90;;;;;;4991429;28;20042;-89
2022/04/25 05:42:58;;;;;;;16.15;8.82;;;9.10;99.90;;;;;;4991189;28;20045;-88
2022/04/25 05:45:25;;;;;;;16.00;9.10;;;9.20;99.90;;;;;;4991653;28;20045;-89
2022/04/25 05:47:54;;;;;;;18.45;9.20;;;9.10;99.90;;;;;;4991613;28;20176;-89
2022/04/25 05:53:04;;;;;;;15.88;9.10;;;9.20;99.90;;;;;;4991236;28;20164;-89
2022/04/25 05:55:30;;;;;;;15.68;8.70;;;9.20;99.90;;;;;;4991967;28;20551;-89
2022/04/25 05:57:57;;;;;;;16.58;8.70;;;9.30;99.90;;;;;;4991900;28;20034;-89
2022/04/25 06:00:24;;;;;;;14.93;8.52;;;9.30;99.90;;;;;;4991194;28;20121;-89
2022/04/25 06:02:50;;;;;;;15.57;8.82;;;9.30;99.90;;;;;;4991483;28;20092;-89
2022/04/25 06:05:16;;;;;;;17.95;8.85;;;9.30;99.90;;;;;;4991209;28;20443;-88
2022/04/25 06:07:43;;;;;;;15.43;8.27;;;9.30;99.90;;;;;;4991133;28;20046;-89
2022/04/25 06:10:10;;;;;;;17.73;8.43;;;9.40;99.90;;;;;;4990586;28;20035;-89
2022/04/25 06:12:50;;;;;;;17.15;8.55;;;9.30;99.90;;;;;;4990746;28;20057;-89
2022/04/25 06:15:17;;;;;;;17.42;8.80;;;9.40;99.90;;;;;;5007826;28;20042;-89
2022/04/25 06:17:42;;;;;;;16.40;8.27;;;9.40;99.90;;;;;;4991111;28;20045;-88
2022/04/25 06:20:10;;;;;;;18.65;8.75;;;9.40;99.90;;;;;;4993240;28;20050;-88
2022/04/25 06:22:37;;;;;;;14.85;7.95;;;9.40;99.90;;;;;;5022748;28;20054;-88
2022/04/25 06:25:05;;;;;;;16.02;8.88;;;9.50;99.90;;;;;;5024106;28;20495;-89
2022/04/25 06:27:30;;;;;;;20.55;9.93;;;9.50;99.90;;;;;;4990824;28;20049;-89
2022/04/25 06:29:56;;;;;;;15.63;9.52;;;9.50;99.90;;;;;;5023577;28;20038;-88
2022/04/25 06:32:23;;;;;;;21.73;10.07;;;9.50;99.90;;;;;;4990973;28;20085;-89
2022/04/25 06:34:49;;;;;;;16.27;9.18;;;9.60;99.90;;;;;;4990762;28;20125;-89
2022/04/25 06:37:15;;;;;;;16.65;10.15;;;9.60;99.90;;;;;;4975102;28;20129;-89
2022/04/25 06:39:41;;;;;;;16.50;10.00;;;9.60;99.90;;;;;;4973741;28;20121;-89
2022/04/25 06:42:11;;;;;;;19.88;10.07;;;9.60;99.90;;;;;;4990377;28;20125;-89
2022/04/25 06:44:37;;;;;;;20.60;10.32;;;9.60;99.90;;;;;;4991076;28;20042;-89
2022/04/25 06:47:03;;;;;;;21.50;10.32;;;9.60;99.90;;;;;;4974275;28;20416;-89
2022/04/25 06:49:28;;;;;;;22.15;11.95;;;9.60;99.90;;;;;;4993028;28;20052;-89
2022/04/25 06:51:58;;;;;;;20.15;10.90;;;9.60;99.90;;;;;;4990216;28;20045;-88
2022/04/25 06:54:24;;;;;;;21.55;10.88;;;9.60;99.90;;;;;;4990829;28;20112;-89
2022/04/25 06:56:51;;;;;;;19.52;11.32;;;9.60;99.90;;;;;;4990608;28;20077;-89
2022/04/25 06:59:18;;;;;;;19.00;11.07;;;9.60;99.90;;;;;;4974542;28;20049;-89
2022/04/25 07:01:44;;;;;;;20.50;10.95;;;9.60;99.90;;;;;;4974139;28;20038;-90
2022/04/25 07:04:11;;;;;;;20.92;10.88;;;9.60;99.90;;;;;;4974314;28;20483;-89
2022/04/25 07:06:37;;;;;;;20.02;10.95;;;9.60;99.90;;;;;;4974443;28;20129;-88
2022/04/25 07:09:04;;;;;;;20.05;9.90;;;9.60;99.90;;;;;;4990199;28;20141;-89
2022/04/25 07:11:29;;;;;;;17.38;10.48;;;9.60;99.90;;;;;;4989783;28;20039;-89
2022/04/25 07:13:55;;;;;;;19.60;11.38;;;9.60;99.90;;;;;;4973934;28;20034;-90
2022/04/25 07:16:24;;;;;;;17.52;9.68;;;9.60;99.90;;;;;;4980896;28;20408;-89
2022/04/25 07:18:50;;;;;;;18.30;11.00;;;9.60;99.90;;;;;;4988871;28;20172;-88
2022/04/25 07:29:48;;;;;;;18.48;10.52;;;9.60;99.90;;;;;;4933778;29;20051;-89
2022/04/25 07:32:16;;;;;;;17.85;10.07;;;9.60;99.90;;;;;;4934066;29;20050;-89
2022/04/25 07:34:43;;;;;;;19.55;11.73;;;9.60;99.90;;;;;;4918827;29;20090;-88
2022/04/25 07:37:09;;;;;;;18.02;10.00;;;9.60;99.90;;;;;;4934249;29;20066;-88
2022/04/25 07:39:35;;;;;;;19.10;10.98;;;9.60;99.90;;;;;;4934546;29;20051;-88
2022/04/25 07:42:01;;;;;;;17.85;11.05;;;9.60;99.90;;;;;;4918058;29;20054;-89
2022/04/25 07:44:27;;;;;;;20.75;10.75;;;9.60;99.90;;;;;;4934275;29;20047;-89
2022/04/25 07:46:53;;;;;;;18.60;10.80;;;9.60;99.90;;;;;;4934362;29;20130;-88
2022/04/25 07:49:19;;;;;;;23.25;12.07;;;9.60;99.90;;;;;;4934024;29;20126;-88
2022/04/25 07:51:44;;;;;;;21.13;10.98;;;9.60;99.90;;;;;;4936223;29;20054;-91
2022/04/25 07:54:11;;;;;;;20.35;11.35;;;9.60;99.90;;;;;;4937538;29;20058;-89
2022/04/25 07:56:37;;;;;;;20.67;12.07;;;9.60;99.90;;;;;;4937950;29;20517;-89
2022/04/25 07:59:05;;;;;;;20.02;12.13;;;9.60;99.90;;;;;;4938265;29;20138;-89
2022/04/25 08:01:31;;;;;;;20.67;13.13;;;9.60;99.90;;;;;;5004971;28;20515;-89
2022/04/25 08:03:57;;;;;;;18.38;11.27;;;9.60;99.90;;;;;;4996674;28;20076;-90
2022/04/25 08:06:23;;;;;;;17.60;11.27;;;9.60;99.90;;;;;;5012938;28;20067;-89
2022/04/25 08:08:53;;;;;;;20.63;11.27;;;9.70;99.90;;;;;;4993704;28;20455;-89
2022/04/25 08:11:20;;;;;;;20.15;11.98;;;9.60;99.90;;;;;;4983769;28;20046;-89
2022/04/25 08:19:15;;;;;;;18.38;11.77;;;9.60;99.90;;;;;;5012551;28;20042;-88
2022/04/25 08:21:42;;;;;;;19.58;11.27;;;9.60;99.90;;;;;;5007408;28;20042;-89
2022/04/25 08:24:08;;;;;;;17.48;10.68;;;9.60;99.90;;;;;;4982916;28;20069;-89
2022/04/25 08:26:33;;;;;;;18.33;12.07;;;9.60;99.90;;;;;;5012400;28;20038;-89
2022/04/25 08:28:59;;;;;;;16.10;10.63;;;9.60;99.90;;;;;;4996302;28;20046;-89
2022/04/25 08:31:26;;;;;;;23.58;12.52;;;9.60;99.90;;;;;;5011494;28;20037;-89
2022/04/25 08:33:51;;;;;;;19.70;11.27;;;9.60;99.90;;;;;;5012730;28;20415;-89
2022/04/25 08:36:18;;;;;;;18.85;13.07;;;9.60;99.90;;;;;;4995881;28;20499;-89
2022/04/25 08:38:45;;;;;;;17.63;11.20;;;9.60;99.90;;;;;;5012123;28;20085;-89
2022/04/25 08:41:12;;;;;;;21.52;12.88;;;9.60;99.90;;;;;;5011612;28;20049;-89
2022/04/25 08:43:42;;;;;;;19.08;11.32;;;9.60;99.90;;;;;;4995522;28;20050;-89
2022/04/25 08:46:10;;;;;;;21.85;11.85;;;9.60;99.90;;;;;;5012454;28;20054;-89
2022/04/25 08:48:37;;;;;;;20.48;10.93;;;9.60;99.90;;;;;;4995206;28;20053;-89
2022/04/25 08:51:04;;;;;;;20.02;11.07;;;9.60;99.90;;;;;;5009935;28;20066;-89
2022/04/25 08:53:32;;;;;;;20.75;12.48;;;9.60;99.90;;;;;;5012232;28;20088;-89
2022/04/25 08:56:01;;;;;;;21.25;11.63;;;9.60;99.90;;;;;;5012054;28;20650;-89
2022/04/25 08:58:28;;;;;;;21.35;12.32;;;9.60;99.90;;;;;;5012100;28;20056;-89
2022/04/25 09:00:54;;;;;;;18.75;11.63;;;9.60;99.90;;;;;;5011178;28;20132;-89
2022/04/25 09:03:20;;;;;;;22.50;11.35;;;9.60;99.90;;;;;;4995134;28;20049;-89
2022/04/25 09:05:46;;;;;;;21.08;12.75;;;9.60;99.90;;;;;;5011876;28;20049;-89
2022/04/25 09:08:12;;;;;;;21.02;12.40;;;9.70;99.90;;;;;;5011964;28;20045;-89
2022/04/25 09:10:40;;;;;;;20.33;11.88;;;9.70;99.90;;;;;;5011628;28;20046;-89
2022/04/25 09:13:06;;;;;;;20.05;11.63;;;9.70;99.90;;;;;;4989185;28;20041;-90
2022/04/25 09:15:32;;;;;;;20.83;11.57;;;9.70;99.90;;;;;;4985884;28;20088;-89
2022/04/25 09:17:59;;;;;;;18.75;12.68;;;9.80;99.90;;;;;;4983585;28;20034;-90
2022/04/25 09:20:25;;;;;;;19.30;10.68;;;9.80;99.90;;;;;;4994267;28;20046;-89
2022/04/25 09:22:51;;;;;;;19.67;11.02;;;9.90;99.90;;;;;;4991732;28;20050;-90
2022/04/25 09:25:18;;;;;;;19.48;13.05;;;9.90;99.90;;;;;;4991824;28;20042;-89
2022/04/25 09:27:44;;;;;;;18.25;10.68;;;10.00;99.90;;;;;;4992127;28;20061;-89
2022/04/25 09:30:21;;;;;;;23.27;11.40;;;10.00;99.90;;;;;;4991285;28;20511;-89
2022/04/25 09:32:50;;;;;;;19.23;11.73;;;10.20;99.90;;;;;;4975673;28;20042;-89
2022/04/25 09:35:25;;;;;;;19.88;10.93;;;10.30;99.90;;;;;;4992060;28;20039;-89
2022/04/25 09:37:51;;;;;;;19.10;12.18;;;10.30;99.90;;;;;;4990663;28;20049;-89
2022/04/25 09:40:21;;;;;;;18.48;11.20;;;10.30;99.90;;;;;;4990961;28;20042;-90
2022/04/25 09:42:48;;;;;;;20.05;10.75;;;10.30;99.90;;;;;;4990847;28;20038;-89
2022/04/25 09:45:15;;;;;;;17.88;11.32;;;10.30;99.90;;;;;;4991701;28;20381;-89
2022/04/25 09:47:41;;;;;;;17.38;10.98;;;10.40;99.90;;;;;;4991762;28;20504;-89
2022/04/25 09:50:12;;;;;;;19.02;11.80;;;10.50;99.90;;;;;;4990695;28;20045;-90
2022/04/25 09:52:55;;;;;;;16.60;10.88;;;10.50;99.90;;;;;;4991489;28;20408;-90
2022/04/25 09:55:23;;;;;;;17.02;10.05;;;10.50;99.90;;;;;;4988267;28;20061;-87
2022/04/25 09:57:50;;;;;;;15.13;9.70;;;10.50;99.90;;;;;;4994422;28;20050;-90
2022/04/25 10:00:33;;;;;;;17.02;9.82;;;10.60;99.90;;;;;;5009936;28;20041;-87
2022/04/25 10:03:03;;;;;;;16.08;9.02;;;10.60;99.90;;;;;;5010634;28;20049;-88
2022/04/25 10:06:01;;;;;;;15.95;10.15;;;10.60;99.90;;;;;;4975883;28;20455;-88
2022/04/25 10:08:27;;;;;;;14.77;8.90;;;10.60;99.90;;;;;;4984057;28;20089;-88
2022/04/25 10:10:53;;;;;;;16.38;9.73;;;10.60;99.90;;;;;;4990542;28;20076;-89
2022/04/25 10:13:19;;;;;;;16.77;9.38;;;10.70;99.90;;;;;;4986713;28;20042;-89
2022/04/25 10:15:46;;;;;;;16.83;9.50;;;10.60;99.90;;;;;;5000184;28;20042;-89
2022/04/25 10:18:13;;;;;;;15.07;9.73;;;10.60;99.90;;;;;;4977691;28;20201;-88
2022/04/25 10:20:42;;;;;;;15.02;10.00;;;10.60;99.90;;;;;;4998089;28;20045;-89
2022/04/25 10:23:12;;;;;;;16.25;9.52;;;10.60;99.90;;;;;;4990989;28;20490;-90
2022/04/25 10:25:40;;;;;;;15.63;9.07;;;10.70;99.90;;;;;;4991779;28;20038;-88
2022/04/25 10:28:11;;;;;;;14.10;8.52;;;10.70;99.90;;;;;;4991467;28;20593;-89
2022/04/25 10:30:38;;;;;;;13.93;8.88;;;10.70;99.90;;;;;;4974574;28;20054;-89
2022/04/25 10:33:13;;;;;;;14.43;9.32;;;10.70;99.90;;;;;;4974920;28;20452;-89
2022/04/25 10:35:39;;;;;;;15.63;8.80;;;10.60;99.90;;;;;;4974456;28;20053;-89
2022/04/25 10:38:47;;;;;;;16.75;10.15;;;10.60;99.90;;;;;;4990161;28;20707;-89
2022/04/25 10:44:17;;;;;;;16.67;9.27;;;10.70;99.90;;;;;;4988217;28;20049;-89
2022/04/25 10:47:18;;;;;;;18.80;10.10;;;10.70;99.90;;;;;;4991377;28;20137;-89
2022/04/25 10:49:58;;;;;;;19.77;11.30;;;10.80;99.90;;;;;;4990204;28;20038;-89
2022/04/25 10:52:51;;;;;;;17.33;11.00;;;10.90;99.90;;;;;;4989921;28;20058;-90
2022/04/25 10:55:23;;;;;;;;;;;11.00;99.90;;;;;;4990829;28;20045;-89
2022/04/25 10:58:04;;;;;;;18.50;12.18;;;11.00;99.90;;;;;;4990171;28;19984;-90
2022/04/25 11:00:41;;;;;;;19.05;12.88;;;11.10;99.90;;;;;;4989600;28;20045;-90
2022/04/25 11:03:19;;;;;;;18.35;11.77;;;11.10;99.90;;;;;;4989674;28;20042;-90
2022/04/25 11:05:48;;;;;;;19.15;11.80;;;11.30;99.90;;;;;;4989945;28;20050;-89
2022/04/25 11:08:20;;;;;;;17.35;12.40;;;11.30;99.90;;;;;;4970578;28;20440;-89
2022/04/25 11:10:48;;;;;;;18.88;12.65;;;11.50;99.90;;;;;;4972781;28;20770;-90
2022/04/25 11:13:18;;;;;;;16.65;13.73;;;11.60;99.90;;;;;;4989936;28;20152;-90
2022/04/25 11:15:46;;;;;;;16.90;11.68;;;11.60;99.90;;;;;;4988912;28;20045;-90
2022/04/25 11:18:37;;;;;;;16.13;10.65;;;11.60;99.90;;;;;;4988407;28;20038;-90
2022/04/25 11:21:08;;;;;;;;;;;11.70;99.90;;;;;;4975618;28;20478;-89
2022/04/25 11:23:35;;;;;;;14.00;9.18;;;11.70;99.90;;;;;;4989259;28;20374;-89
2022/04/25 11:26:04;;;;;;;17.30;10.68;;;11.70;99.90;;;;;;4975831;28;20475;-89
2022/04/25 11:28:30;;;;;;;16.23;10.63;;;11.80;99.90;;;;;;4994007;28;20042;-89
2022/04/25 11:31:13;;;;;;;16.55;10.85;;;11.80;99.90;;;;;;4995150;28;20045;-88
2022/04/25 11:33:44;;;;;;;15.85;9.93;;;11.90;99.90;;;;;;4977800;28;20061;-89
2022/04/25 11:36:11;;;;;;;15.75;11.32;;;11.90;99.90;;;;;;4992315;28;20526;-90
2022/04/25 11:41:29;;;;;;;15.57;8.90;;;11.90;99.90;;;;;;4993316;28;20058;-89
2022/04/25 11:43:55;;;;;;;15.90;9.55;;;11.90;99.90;;;;;;4994422;28;20091;-89
2022/04/25 11:46:21;;;;;;;16.73;10.27;;;11.80;99.90;;;;;;4976833;28;20134;-89
2022/04/25 11:48:51;;;;;;;15.90;9.57;;;11.80;99.90;;;;;;4993509;28;20038;-89
2022/04/25 11:51:31;;;;;;;15.57;9.52;;;11.80;99.90;;;;;;4993337;28;20046;-89
2022/04/25 11:53:59;;;;;;;12.82;8.00;;;11.80;99.90;;;;;;4975919;28;20124;-90
2022/04/25 11:56:28;;;;;;;14.48;8.27;;;11.80;99.90;;;;;;4992562;28;20034;-90
2022/04/25 11:58:56;;;;;;;13.30;8.85;;;11.90;99.90;;;;;;4991887;28;20042;-90
2022/04/25 12:01:42;;;;;;;14.23;9.02;;;11.90;99.90;;;;;;4975694;28;20533;-89
2022/04/25 12:04:19;;;;;;;13.75;8.07;;;11.90;99.90;;;;;;4990823;28;20031;-89
2022/04/25 12:06:56;;;;;;;14.60;8.90;;;11.90;99.90;;;;;;4984787;28;20547;-89
2022/04/25 12:17:49;;;;;;;12.77;8.48;;;12.00;99.90;;;;;;4983146;28;20038;-89
2022/04/25 12:20:17;;;;;;;14.98;7.47;;;12.10;99.90;;;;;;4982053;28;20540;-88
2022/04/25 12:22:58;;;;;;;15.20;8.25;;;12.10;99.90;;;;;;4981453;28;20045;-89
2022/04/25 12:25:27;;;;;;;14.23;7.80;;;12.20;99.90;;;;;;5012354;28;20132;-89
2022/04/25 12:28:06;;;;;;;14.73;8.80;;;12.20;99.90;;;;;;5008515;28;20042;-89
2022/04/25 12:30:58;;;;;;;14.90;8.93;;;12.30;99.90;;;;;;4991256;28;20097;-89
2022/04/25 12:33:43;;;;;;;13.13;8.45;;;12.30;99.90;;;;;;4993002;28;20089;-89
2022/04/25 12:36:16;;;;;;;15.23;8.60;;;12.40;99.90;;;;;;4976382;28;20137;-89
2022/04/25 12:39:11;;;;;;;12.75;7.93;;;12.40;99.90;;;;;;4992385;28;20038;-90
2022/04/25 12:41:38;;;;;;;13.20;9.25;;;12.40;99.90;;;;;;4992370;28;20062;-89
2022/04/25 12:44:10;;;;;;;12.73;8.68;;;12.40;99.90;;;;;;4977197;28;20038;-89
2022/04/25 12:46:40;;;;;;;15.32;9.48;;;12.30;99.90;;;;;;4992721;28;20050;-90
2022/04/25 12:49:11;;;;;;;15.98;8.85;;;12.30;99.90;;;;;;4992710;28;20089;-89
2022/04/25 12:51:57;;;;;;;18.15;9.63;;;12.30;99.90;;;;;;4992817;28;20046;-90
2022/04/25 12:54:46;;;;;;;14.13;9.00;;;12.30;99.90;;;;;;4976391;28;20121;-90
2022/04/25 12:57:16;;;;;;;15.30;9.70;;;12.20;99.90;;;;;;4992328;28;20076;-90
2022/04/25 12:59:58;;;;;;;13.57;9.05;;;12.20;99.90;;;;;;4988288;28;20046;-89
2022/04/25 13:02:29;;;;;;;16.00;9.40;;;12.20;99.90;;;;;;4994560;28;20121;-89
2022/04/25 13:04:56;;;;;;;14.32;9.52;;;12.20;99.90;;;;;;4996825;28;20050;-89
2022/04/25 13:07:22;;;;;;;12.88;9.30;;;12.20;99.90;;;;;;4983069;28;20041;-89
2022/04/25 13:09:48;;;;;;;13.82;9.82;;;12.20;99.90;;;;;;4999233;28;20037;-90
2022/04/25 13:12:16;;;;;;;15.07;9.75;;;12.20;99.90;;;;;;5024293;28;20099;-90
2022/04/25 13:14:42;;;;;;;15.85;9.45;;;12.30;99.90;;;;;;5000780;28;20550;-90
2022/04/25 13:17:08;;;;;;;14.23;9.48;;;12.30;99.90;;;;;;4995845;28;20504;-88
2022/04/25 13:19:34;;;;;;;13.07;9.48;;;12.30;99.90;;;;;;4992260;28;20044;-89
2022/04/25 13:22:00;;;;;;;14.25;9.52;;;12.30;99.90;;;;;;5016098;28;20053;-90